»·PEaware :: AAL343 KSLC-KGJT

AAL343 :: KSLC-KGJT

FLIGHT INFORMATION

Flight Status: Arrived
Operator:
American Airlines
More flights by this operator :: More flights under this callsign
Pilot: James W. (12414)
Aircraft: BOEING 737-800
(B738)
More flights by this aircraft type
Origin: KSLC Salt Lake City Intl
United States
Destination: KGJT Walker
United States
More flights between these airports :: More routes between these airports
Route: +NSIGN5 MTU JNC
File this flight plan on PilotEdge
Remarks:
Altitude:
(Current/Filed)
290ft
Speed:
(Current/Filed)
450kts
Departed: 31-Oct-17 06:19 PM
Arrived: 31-Oct-17 07:02 PM
Distance/Time
Traveled:
187nm/0:43
Distance/Time
To Go:
Arrived

Flight Plot

Page will automatically refresh every two minutes.

Flight plan parsing failed; only flown route is shown


Map Options




Map Legend


Flown Route
Filed Route
Departure Airport
Arrival Airport
Navaid (VOR, NDB)
Fix

Horizontal Profiles

Position Reports

Time Latitude Longitude Heading Altitude Ground
Speed
31-Oct-17 17:50 40.785184 -111.977971 351 4234ft 0kts
31-Oct-17 17:51 40.785184 -111.977971 351 4234ft 0kts
31-Oct-17 17:52 40.785184 -111.977971 351 4234ft 0kts
31-Oct-17 17:53 40.785184 -111.977971 351 4234ft 0kts
31-Oct-17 17:54 40.785184 -111.977971 351 4234ft 0kts
31-Oct-17 17:55 40.785184 -111.977971 351 4234ft 0kts
31-Oct-17 17:56 40.785184 -111.977971 351 4234ft 0kts
31-Oct-17 17:57 40.785184 -111.977971 351 4234ft 0kts
31-Oct-17 17:58 40.785184 -111.977971 351 4234ft 0kts
31-Oct-17 17:59 40.785184 -111.977971 351 4234ft 0kts
31-Oct-17 18:00 40.785184 -111.977971 351 4234ft 0kts
31-Oct-17 18:01 40.785184 -111.977971 351 4234ft 0kts
31-Oct-17 18:02 40.785184 -111.977971 351 4234ft 0kts
31-Oct-17 18:03 40.785184 -111.977971 351 4234ft 0kts
31-Oct-17 18:04 40.785184 -111.977971 351 4234ft 0kts
31-Oct-17 18:05 40.785184 -111.977971 351 4234ft 0kts
31-Oct-17 18:06 40.785184 -111.977971 351 4234ft 0kts
31-Oct-17 18:07 40.785184 -111.977971 351 4234ft 0kts
31-Oct-17 18:08 40.785184 -111.977971 351 4234ft 0kts
31-Oct-17 18:09 40.785184 -111.977971 351 4234ft 0kts
31-Oct-17 18:10 40.785184 -111.977971 351 4234ft 0kts
31-Oct-17 18:11 40.785184 -111.977971 351 4234ft 0kts
31-Oct-17 18:12 40.785184 -111.977971 351 4234ft 0kts
31-Oct-17 18:13 40.785184 -111.977971 351 4234ft 0kts
31-Oct-17 18:14 40.785184 -111.977971 351 4234ft 0kts
31-Oct-17 18:15 40.785184 -111.977971 351 4234ft 0kts
31-Oct-17 18:16 40.785012 -111.977962 354 4235ft 2kts
31-Oct-17 18:17 40.784741 -111.978038 91 4235ft 1kts
31-Oct-17 18:18 40.784743 -111.978118 92 4234ft 0kts
31-Oct-17 18:19 40.784743 -111.978112 92 4234ft 0kts
31-Oct-17 18:20 40.783836 -111.976375 175 4235ft 11kts
31-Oct-17 18:21 40.780658 -111.976009 176 4235ft 14kts
31-Oct-17 18:22 40.776360 -111.975470 174 4234ft 6kts
31-Oct-17 18:23 40.774752 -111.975027 134 4235ft 10kts
31-Oct-17 18:24 40.779659 -111.973723 354 4235ft 91kts
31-Oct-17 18:25 40.828422 -111.979566 358 5612ft 215kts
31-Oct-17 18:26 40.890364 -111.987822 353 7785ft 242kts
31-Oct-17 18:27 40.965069 -111.998344 353 9964ft 288kts
31-Oct-17 18:28 41.041612 -112.009558 353 12122ft 310kts
31-Oct-17 18:29 41.118502 -111.966791 43 14460ft 348kts
31-Oct-17 18:30 41.142567 -111.839983 102 16747ft 398kts
31-Oct-17 18:31 41.066989 -111.735176 162 19019ft 423kts
31-Oct-17 18:32 40.952311 -111.703758 165 21274ft 432kts
31-Oct-17 18:33 40.839428 -111.659057 163 23337ft 441kts
31-Oct-17 18:34 40.726283 -111.580771 129 24149ft 488kts
31-Oct-17 18:35 40.686553 -111.416662 89 26339ft 482kts
31-Oct-17 18:36 40.646835 -111.248148 108 28013ft 503kts
31-Oct-17 18:37 40.596387 -111.076901 108 29006ft 503kts
31-Oct-17 18:38 40.546403 -110.906707 108 29020ft 503kts
31-Oct-17 18:39 40.496560 -110.736055 108 29022ft 503kts
31-Oct-17 18:40 40.447230 -110.566381 107 29011ft 505kts
31-Oct-17 18:41 40.381433 -110.405838 134 28939ft 517kts
31-Oct-17 18:42 40.277689 -110.290011 134 28946ft 517kts
31-Oct-17 18:43 40.174850 -110.159837 134 27658ft 509kts
31-Oct-17 18:44 40.077213 -110.038259 135 26274ft 489kts
31-Oct-17 18:45 39.975763 -109.914871 136 25330ft 496kts
31-Oct-17 18:46 39.877050 -109.794528 135 24089ft 488kts
31-Oct-17 18:47 39.779940 -109.676076 136 22461ft 476kts
31-Oct-17 18:48 39.684935 -109.560182 134 20857ft 472kts
31-Oct-17 18:49 39.590694 -109.444766 134 19251ft 462kts
31-Oct-17 18:50 39.499577 -109.333316 135 17676ft 453kts
31-Oct-17 18:51 39.412752 -109.226726 135 15738ft 417kts
31-Oct-17 18:52 39.331060 -109.126458 136 13318ft 398kts
31-Oct-17 18:53 39.254384 -109.032354 136 11014ft 372kts
31-Oct-17 18:54 39.182205 -108.943535 136 8960ft 342kts
31-Oct-17 18:55 39.121318 -108.868602 136 8927ft 282kts
31-Oct-17 18:56 39.063620 -108.797600 135 8976ft 288kts
31-Oct-17 18:57 39.016013 -108.715377 125 8978ft 289kts
31-Oct-17 18:58 38.969688 -108.632231 125 8977ft 289kts
31-Oct-17 18:59 38.923239 -108.548781 125 8977ft 289kts
31-Oct-17 19:00 38.893254 -108.460753 65 8931ft 265kts
31-Oct-17 19:01 38.947250 -108.406817 32 7685ft 253kts
31-Oct-17 19:02 39.003116 -108.361045 32 6872ft 215kts
31-Oct-17 19:03 39.047639 -108.379873 304 6884ft 184kts
31-Oct-17 19:04 39.071872 -108.428918 299 6345ft 156kts
31-Oct-17 19:05 39.097369 -108.476256 306 5609ft 167kts
31-Oct-17 19:06 39.123385 -108.523293 305 4865ft 144kts
31-Oct-17 19:07 39.129782 -108.534965 287 4865ft 0kts
31-Oct-17 19:08 39.129741 -108.535860 238 4864ft 4kts
31-Oct-17 19:09 39.127847 -108.533700 125 4865ft 24kts
31-Oct-17 19:10 39.124196 -108.528008 197 4864ft 10kts
31-Oct-17 19:11 39.122985 -108.528200 255 4864ft 2kts

Navigation Log

Ident Type
Flight plan parsing failed, navigation log unavailable